sensor_id;sensor_type;location;lat;lon;timestamp;P1;durP1;ratioP1;P2;durP2;ratioP2
3953;SDS011;1991;48.682;9.030;2023-04-02T00:01:03;0.20;;;0.10;;
3953;SDS011;1991;48.682;9.030;2023-04-02T00:08:57;0.30;;;0.20;;
3953;SDS011;1991;48.682;9.030;2023-04-02T00:11:30;0.40;;;0.10;;
3953;SDS011;1991;48.682;9.030;2023-04-02T00:14:02;0.60;;;0.60;;
3953;SDS011;1991;48.682;9.030;2023-04-02T00:16:30;0.20;;;0.20;;
3953;SDS011;1991;48.682;9.030;2023-04-02T00:18:58;0.70;;;0.40;;
3953;SDS011;1991;48.682;9.030;2023-04-02T00:21:31;0.40;;;0.20;;
3953;SDS011;1991;48.682;9.030;2023-04-02T00:24:00;0.30;;;0.30;;
3953;SDS011;1991;48.682;9.030;2023-04-02T00:29:02;0.40;;;0.20;;
3953;SDS011;1991;48.682;9.030;2023-04-02T00:31:32;0.70;;;0.20;;
3953;SDS011;1991;48.682;9.030;2023-04-02T00:33:59;0.30;;;0.10;;
3953;SDS011;1991;48.682;9.030;2023-04-02T00:36:28;3.03;;;0.20;;
3953;SDS011;1991;48.682;9.030;2023-04-02T00:38:56;1.40;;;0.10;;
3953;SDS011;1991;48.682;9.030;2023-04-02T00:41:24;0.40;;;0.20;;
3953;SDS011;1991;48.682;9.030;2023-04-02T00:43:53;0.20;;;0.10;;
3953;SDS011;1991;48.682;9.030;2023-04-02T00:46:22;2.07;;;0.30;;
3953;SDS011;1991;48.682;9.030;2023-04-02T00:48:58;1.50;;;0.13;;
3953;SDS011;1991;48.682;9.030;2023-04-02T00:51:35;0.77;;;0.30;;
3953;SDS011;1991;48.682;9.030;2023-04-02T00:54:10;1.00;;;0.30;;
3953;SDS011;1991;48.682;9.030;2023-04-02T00:59:18;0.23;;;0.13;;
3953;SDS011;1991;48.682;9.030;2023-04-02T01:01:59;0.10;;;0.10;;
3953;SDS011;1991;48.682;9.030;2023-04-02T01:05:03;0.63;;;0.23;;
3953;SDS011;1991;48.682;9.030;2023-04-02T01:15:34;0.30;;;0.10;;
3953;SDS011;1991;48.682;9.030;2023-04-02T01:21:25;1.53;;;0.30;;
3953;SDS011;1991;48.682;9.030;2023-04-02T01:24:07;2.30;;;0.23;;
3953;SDS011;1991;48.682;9.030;2023-04-02T01:29:14;0.80;;;0.30;;
3953;SDS011;1991;48.682;9.030;2023-04-02T01:31:43;0.20;;;0.20;;
3953;SDS011;1991;48.682;9.030;2023-04-02T01:34:11;0.50;;;0.17;;
3953;SDS011;1991;48.682;9.030;2023-04-02T01:36:48;0.30;;;0.20;;
3953;SDS011;1991;48.682;9.030;2023-04-02T01:44:52;0.30;;;0.10;;
3953;SDS011;1991;48.682;9.030;2023-04-02T01:47:24;0.50;;;0.20;;
3953;SDS011;1991;48.682;9.030;2023-04-02T01:49:55;0.50;;;0.30;;
3953;SDS011;1991;48.682;9.030;2023-04-02T01:52:49;0.83;;;0.20;;
3953;SDS011;1991;48.682;9.030;2023-04-02T01:55:23;0.20;;;0.20;;
3953;SDS011;1991;48.682;9.030;2023-04-02T01:57:56;0.50;;;0.20;;
3953;SDS011;1991;48.682;9.030;2023-04-02T02:00:24;0.43;;;0.30;;
3953;SDS011;1991;48.682;9.030;2023-04-02T02:02:51;0.30;;;0.30;;
3953;SDS011;1991;48.682;9.030;2023-04-02T02:05:18;0.40;;;0.23;;
3953;SDS011;1991;48.682;9.030;2023-04-02T02:07:47;1.80;;;0.20;;
3953;SDS011;1991;48.682;9.030;2023-04-02T02:10:14;1.03;;;0.20;;
3953;SDS011;1991;48.682;9.030;2023-04-02T02:12:43;0.90;;;0.30;;
3953;SDS011;1991;48.682;9.030;2023-04-02T02:15:16;0.33;;;0.20;;
3953;SDS011;1991;48.682;9.030;2023-04-02T02:17:44;0.70;;;0.30;;
3953;SDS011;1991;48.682;9.030;2023-04-02T02:20:10;1.13;;;0.30;;
3953;SDS011;1991;48.682;9.030;2023-04-02T02:22:37;0.30;;;0.30;;
3953;SDS011;1991;48.682;9.030;2023-04-02T02:25:10;0.50;;;0.40;;
3953;SDS011;1991;48.682;9.030;2023-04-02T02:27:57;0.97;;;0.30;;
3953;SDS011;1991;48.682;9.030;2023-04-02T02:30:37;1.63;;;0.40;;
3953;SDS011;1991;48.682;9.030;2023-04-02T02:33:35;1.17;;;0.40;;
3953;SDS011;1991;48.682;9.030;2023-04-02T02:36:04;0.20;;;0.20;;
3953;SDS011;1991;48.682;9.030;2023-04-02T02:46:37;1.00;;;0.50;;
3953;SDS011;1991;48.682;9.030;2023-04-02T02:49:13;2.97;;;0.50;;
3953;SDS011;1991;48.682;9.030;2023-04-02T02:51:43;0.90;;;0.40;;
3953;SDS011;1991;48.682;9.030;2023-04-02T02:54:09;1.77;;;0.57;;
3953;SDS011;1991;48.682;9.030;2023-04-02T02:56:36;0.77;;;0.43;;
3953;SDS011;1991;48.682;9.030;2023-04-02T02:59:10;0.57;;;0.50;;
3953;SDS011;1991;48.682;9.030;2023-04-02T03:01:39;0.93;;;0.40;;
3953;SDS011;1991;48.682;9.030;2023-04-02T03:04:06;1.00;;;0.50;;
3953;SDS011;1991;48.682;9.030;2023-04-02T03:06:31;0.90;;;0.43;;
3953;SDS011;1991;48.682;9.030;2023-04-02T03:09:06;1.53;;;0.47;;
3953;SDS011;1991;48.682;9.030;2023-04-02T03:11:43;4.17;;;0.37;;
3953;SDS011;1991;48.682;9.030;2023-04-02T03:14:29;1.77;;;0.40;;
3953;SDS011;1991;48.682;9.030;2023-04-02T03:16:57;0.43;;;0.30;;
3953;SDS011;1991;48.682;9.030;2023-04-02T03:19:37;0.63;;;0.30;;
3953;SDS011;1991;48.682;9.030;2023-04-02T03:27:39;0.50;;;0.30;;
3953;SDS011;1991;48.682;9.030;2023-04-02T03:30:24;0.50;;;0.30;;
3953;SDS011;1991;48.682;9.030;2023-04-02T03:33:03;0.50;;;0.20;;
3953;SDS011;1991;48.682;9.030;2023-04-02T03:41:00;0.50;;;0.33;;
3953;SDS011;1991;48.682;9.030;2023-04-02T03:43:43;0.87;;;0.40;;
3953;SDS011;1991;48.682;9.030;2023-04-02T03:46:46;1.60;;;0.50;;
3953;SDS011;1991;48.682;9.030;2023-04-02T03:49:06;0.53;;;0.30;;
3953;SDS011;1991;48.682;9.030;2023-04-02T03:54:21;0.93;;;0.20;;
3953;SDS011;1991;48.682;9.030;2023-04-02T03:56:47;1.07;;;0.50;;
3953;SDS011;1991;48.682;9.030;2023-04-02T03:59:21;1.33;;;0.40;;
3953;SDS011;1991;48.682;9.030;2023-04-02T04:04:21;0.73;;;0.20;;
3953;SDS011;1991;48.682;9.030;2023-04-02T04:06:51;0.60;;;0.53;;
3953;SDS011;1991;48.682;9.030;2023-04-02T04:17:54;1.23;;;0.43;;
3953;SDS011;1991;48.682;9.030;2023-04-02T04:26:00;1.07;;;0.50;;
3953;SDS011;1991;48.682;9.030;2023-04-02T04:31:40;0.30;;;0.30;;
3953;SDS011;1991;48.682;9.030;2023-04-02T04:34:18;1.50;;;0.70;;
3953;SDS011;1991;48.682;9.030;2023-04-02T04:37:13;1.37;;;0.47;;
3953;SDS011;1991;48.682;9.030;2023-04-02T04:39:49;0.40;;;0.40;;
3953;SDS011;1991;48.682;9.030;2023-04-02T04:42:28;1.70;;;0.70;;
3953;SDS011;1991;48.682;9.030;2023-04-02T04:44:58;2.20;;;0.60;;
3953;SDS011;1991;48.682;9.030;2023-04-02T04:47:38;1.63;;;0.53;;
3953;SDS011;1991;48.682;9.030;2023-04-02T04:50:18;1.40;;;0.57;;
3953;SDS011;1991;48.682;9.030;2023-04-02T04:52:52;2.00;;;0.50;;
3953;SDS011;1991;48.682;9.030;2023-04-02T04:55:28;1.93;;;1.00;;
3953;SDS011;1991;48.682;9.030;2023-04-02T04:58:01;2.40;;;0.50;;
3953;SDS011;1991;48.682;9.030;2023-04-02T05:00:39;2.17;;;0.60;;
3953;SDS011;1991;48.682;9.030;2023-04-02T05:05:41;2.07;;;0.80;;
3953;SDS011;1991;48.682;9.030;2023-04-02T05:08:12;1.70;;;0.67;;
3953;SDS011;1991;48.682;9.030;2023-04-02T05:10:50;1.77;;;0.70;;
3953;SDS011;1991;48.682;9.030;2023-04-02T05:13:56;1.90;;;0.60;;
3953;SDS011;1991;48.682;9.030;2023-04-02T05:19:11;2.23;;;0.80;;
3953;SDS011;1991;48.682;9.030;2023-04-02T05:21:44;3.23;;;0.87;;
3953;SDS011;1991;48.682;9.030;2023-04-02T05:24:37;1.83;;;0.60;;
3953;SDS011;1991;48.682;9.030;2023-04-02T05:27:42;0.73;;;0.63;;
3953;SDS011;1991;48.682;9.030;2023-04-02T05:32:52;2.17;;;0.90;;
3953;SDS011;1991;48.682;9.030;2023-04-02T05:35:21;2.17;;;0.77;;
3953;SDS011;1991;48.682;9.030;2023-04-02T05:37:53;1.50;;;0.80;;
3953;SDS011;1991;48.682;9.030;2023-04-02T05:40:20;1.47;;;0.43;;
3953;SDS011;1991;48.682;9.030;2023-04-02T05:42:51;0.80;;;0.63;;
3953;SDS011;1991;48.682;9.030;2023-04-02T05:47:48;1.17;;;0.60;;
3953;SDS011;1991;48.682;9.030;2023-04-02T05:50:20;1.30;;;0.60;;
3953;SDS011;1991;48.682;9.030;2023-04-02T05:53:05;1.47;;;0.60;;
3953;SDS011;1991;48.682;9.030;2023-04-02T05:55:58;2.40;;;0.87;;
3953;SDS011;1991;48.682;9.030;2023-04-02T05:58:38;1.23;;;0.70;;
3953;SDS011;1991;48.682;9.030;2023-04-02T06:04:40;1.07;;;0.80;;
3953;SDS011;1991;48.682;9.030;2023-04-02T06:06:57;0.83;;;0.47;;
3953;SDS011;1991;48.682;9.030;2023-04-02T06:09:37;0.93;;;0.60;;
3953;SDS011;1991;48.682;9.030;2023-04-02T06:12:12;1.13;;;0.50;;
3953;SDS011;1991;48.682;9.030;2023-04-02T06:14:39;2.10;;;0.60;;
3953;SDS011;1991;48.682;9.030;2023-04-02T06:17:05;2.87;;;0.77;;
3953;SDS011;1991;48.682;9.030;2023-04-02T06:19:32;2.47;;;0.90;;
3953;SDS011;1991;48.682;9.030;2023-04-02T06:22:08;2.87;;;0.67;;
3953;SDS011;1991;48.682;9.030;2023-04-02T06:24:42;4.43;;;0.63;;
3953;SDS011;1991;48.682;9.030;2023-04-02T06:27:11;0.80;;;0.60;;
3953;SDS011;1991;48.682;9.030;2023-04-02T06:29:43;1.77;;;0.90;;
3953;SDS011;1991;48.682;9.030;2023-04-02T06:32:10;1.20;;;0.57;;
3953;SDS011;1991;48.682;9.030;2023-04-02T06:34:39;1.77;;;0.70;;
3953;SDS011;1991;48.682;9.030;2023-04-02T06:37:18;3.00;;;0.80;;
3953;SDS011;1991;48.682;9.030;2023-04-02T06:39:45;0.83;;;0.67;;
3953;SDS011;1991;48.682;9.030;2023-04-02T06:42:12;2.73;;;0.73;;
3953;SDS011;1991;48.682;9.030;2023-04-02T06:44:45;2.00;;;1.00;;
3953;SDS011;1991;48.682;9.030;2023-04-02T06:47:26;1.63;;;0.80;;
3953;SDS011;1991;48.682;9.030;2023-04-02T06:52:51;0.67;;;0.60;;
3953;SDS011;1991;48.682;9.030;2023-04-02T06:58:13;2.67;;;1.00;;
3953;SDS011;1991;48.682;9.030;2023-04-02T07:00:41;1.93;;;0.60;;
3953;SDS011;1991;48.682;9.030;2023-04-02T07:03:29;1.13;;;0.60;;
3953;SDS011;1991;48.682;9.030;2023-04-02T07:05:56;0.97;;;0.60;;
3953;SDS011;1991;48.682;9.030;2023-04-02T07:08:24;2.30;;;1.17;;
3953;SDS011;1991;48.682;9.030;2023-04-02T07:10:50;1.50;;;0.63;;
3953;SDS011;1991;48.682;9.030;2023-04-02T07:13:17;0.87;;;0.77;;
3953;SDS011;1991;48.682;9.030;2023-04-02T07:15:44;1.60;;;0.63;;
3953;SDS011;1991;48.682;9.030;2023-04-02T07:18:21;2.20;;;0.70;;
3953;SDS011;1991;48.682;9.030;2023-04-02T07:20:47;1.63;;;0.83;;
3953;SDS011;1991;48.682;9.030;2023-04-02T07:23:13;1.27;;;0.70;;
3953;SDS011;1991;48.682;9.030;2023-04-02T07:25:38;1.20;;;0.80;;
3953;SDS011;1991;48.682;9.030;2023-04-02T07:28:04;1.17;;;0.57;;
3953;SDS011;1991;48.682;9.030;2023-04-02T07:30:30;2.00;;;0.70;;
3953;SDS011;1991;48.682;9.030;2023-04-02T07:32:56;1.87;;;0.80;;
3953;SDS011;1991;48.682;9.030;2023-04-02T07:35:21;0.77;;;0.40;;
3953;SDS011;1991;48.682;9.030;2023-04-02T07:37:47;1.47;;;0.63;;
3953;SDS011;1991;48.682;9.030;2023-04-02T07:40:17;1.43;;;0.50;;
3953;SDS011;1991;48.682;9.030;2023-04-02T07:42:46;1.17;;;0.60;;
3953;SDS011;1991;48.682;9.030;2023-04-02T07:45:12;1.57;;;0.50;;
3953;SDS011;1991;48.682;9.030;2023-04-02T07:47:38;1.03;;;0.60;;
3953;SDS011;1991;48.682;9.030;2023-04-02T07:50:04;1.00;;;0.53;;
3953;SDS011;1991;48.682;9.030;2023-04-02T07:52:30;0.50;;;0.50;;
3953;SDS011;1991;48.682;9.030;2023-04-02T07:54:55;2.63;;;0.80;;
3953;SDS011;1991;48.682;9.030;2023-04-02T07:57:21;0.70;;;0.50;;
3953;SDS011;1991;48.682;9.030;2023-04-02T07:59:47;1.77;;;0.77;;
3953;SDS011;1991;48.682;9.030;2023-04-02T08:02:19;1.00;;;0.60;;
3953;SDS011;1991;48.682;9.030;2023-04-02T08:04:45;0.50;;;0.43;;
3953;SDS011;1991;48.682;9.030;2023-04-02T08:07:11;0.60;;;0.57;;
3953;SDS011;1991;48.682;9.030;2023-04-02T08:09:37;1.23;;;0.73;;
3953;SDS011;1991;48.682;9.030;2023-04-02T08:12:03;1.70;;;0.73;;
3953;SDS011;1991;48.682;9.030;2023-04-02T08:14:29;1.20;;;0.70;;
3953;SDS011;1991;48.682;9.030;2023-04-02T08:16:54;1.17;;;0.40;;
3953;SDS011;1991;48.682;9.030;2023-04-02T08:19:21;0.77;;;0.53;;
3953;SDS011;1991;48.682;9.030;2023-04-02T08:21:47;1.60;;;0.57;;
3953;SDS011;1991;48.682;9.030;2023-04-02T08:24:15;2.00;;;0.50;;
3953;SDS011;1991;48.682;9.030;2023-04-02T08:26:43;0.40;;;0.33;;
3953;SDS011;1991;48.682;9.030;2023-04-02T08:29:10;1.17;;;1.00;;
3953;SDS011;1991;48.682;9.030;2023-04-02T08:31:35;1.40;;;0.63;;
3953;SDS011;1991;48.682;9.030;2023-04-02T08:34:01;0.90;;;0.50;;
3953;SDS011;1991;48.682;9.030;2023-04-02T08:36:34;2.23;;;0.70;;
3953;SDS011;1991;48.682;9.030;2023-04-02T08:39:01;0.63;;;0.50;;
3953;SDS011;1991;48.682;9.030;2023-04-02T08:41:28;2.30;;;0.50;;
3953;SDS011;1991;48.682;9.030;2023-04-02T08:44:14;1.03;;;0.30;;
3953;SDS011;1991;48.682;9.030;2023-04-02T08:46:54;0.60;;;0.40;;
3953;SDS011;1991;48.682;9.030;2023-04-02T08:49:29;1.00;;;0.60;;
3953;SDS011;1991;48.682;9.030;2023-04-02T08:52:00;2.10;;;0.50;;
3953;SDS011;1991;48.682;9.030;2023-04-02T08:54:27;1.53;;;0.80;;
3953;SDS011;1991;48.682;9.030;2023-04-02T08:57:38;2.43;;;0.60;;
3953;SDS011;1991;48.682;9.030;2023-04-02T08:59:54;1.27;;;0.50;;
3953;SDS011;1991;48.682;9.030;2023-04-02T09:02:36;1.00;;;0.60;;
3953;SDS011;1991;48.682;9.030;2023-04-02T09:05:06;0.47;;;0.40;;
3953;SDS011;1991;48.682;9.030;2023-04-02T09:07:39;0.50;;;0.30;;
3953;SDS011;1991;48.682;9.030;2023-04-02T09:10:10;2.87;;;1.00;;
3953;SDS011;1991;48.682;9.030;2023-04-02T09:12:40;1.27;;;0.50;;
3953;SDS011;1991;48.682;9.030;2023-04-02T09:17:50;1.77;;;0.60;;
3953;SDS011;1991;48.682;9.030;2023-04-02T09:20:22;1.20;;;0.60;;
3953;SDS011;1991;48.682;9.030;2023-04-02T09:22:53;1.47;;;0.60;;
3953;SDS011;1991;48.682;9.030;2023-04-02T09:25:20;1.30;;;0.40;;
3953;SDS011;1991;48.682;9.030;2023-04-02T09:27:47;0.70;;;0.50;;
3953;SDS011;1991;48.682;9.030;2023-04-02T09:33:10;0.80;;;0.53;;
3953;SDS011;1991;48.682;9.030;2023-04-02T09:35:36;1.20;;;0.33;;
3953;SDS011;1991;48.682;9.030;2023-04-02T09:43:26;2.73;;;0.40;;
3953;SDS011;1991;48.682;9.030;2023-04-02T09:48:40;0.77;;;0.40;;
3953;SDS011;1991;48.682;9.030;2023-04-02T09:51:16;1.00;;;0.30;;
3953;SDS011;1991;48.682;9.030;2023-04-02T09:54:05;0.47;;;0.47;;
3953;SDS011;1991;48.682;9.030;2023-04-02T09:56:33;2.22;;;0.43;;
3953;SDS011;1991;48.682;9.030;2023-04-02T10:01:59;0.40;;;0.30;;
3953;SDS011;1991;48.682;9.030;2023-04-02T10:04:44;0.50;;;0.30;;
3953;SDS011;1991;48.682;9.030;2023-04-02T10:12:51;0.50;;;0.30;;
3953;SDS011;1991;48.682;9.030;2023-04-02T10:15:30;0.40;;;0.23;;
3953;SDS011;1991;48.682;9.030;2023-04-02T10:18:22;0.40;;;0.30;;
3953;SDS011;1991;48.682;9.030;2023-04-02T10:21:14;1.00;;;0.30;;
3953;SDS011;1991;48.682;9.030;2023-04-02T10:23:48;0.30;;;0.30;;
3953;SDS011;1991;48.682;9.030;2023-04-02T10:26:22;0.32;;;0.20;;
3953;SDS011;1991;48.682;9.030;2023-04-02T10:31:39;1.33;;;0.43;;
3953;SDS011;1991;48.682;9.030;2023-04-02T10:34:11;0.60;;;0.30;;
3953;SDS011;1991;48.682;9.030;2023-04-02T10:36:50;2.05;;;0.40;;
3953;SDS011;1991;48.682;9.030;2023-04-02T10:39:27;2.70;;;0.20;;
3953;SDS011;1991;48.682;9.030;2023-04-02T10:42:21;0.57;;;0.30;;
3953;SDS011;1991;48.682;9.030;2023-04-02T10:44:51;0.82;;;0.43;;
3953;SDS011;1991;48.682;9.030;2023-04-02T10:47:28;0.57;;;0.50;;
3953;SDS011;1991;48.682;9.030;2023-04-02T10:55:24;1.73;;;1.45;;
3953;SDS011;1991;48.682;9.030;2023-04-02T10:57:54;5.53;;;1.45;;
3953;SDS011;1991;48.682;9.030;2023-04-02T11:00:24;0.30;;;0.30;;
3953;SDS011;1991;48.682;9.030;2023-04-02T11:08:38;1.17;;;0.50;;
3953;SDS011;1991;48.682;9.030;2023-04-02T11:14:20;1.02;;;0.35;;
3953;SDS011;1991;48.682;9.030;2023-04-02T11:16:48;1.83;;;0.40;;
3953;SDS011;1991;48.682;9.030;2023-04-02T11:32:43;0.65;;;0.60;;
3953;SDS011;1991;48.682;9.030;2023-04-02T11:38:01;1.60;;;1.50;;
3953;SDS011;1991;48.682;9.030;2023-04-02T11:40:48;1.65;;;0.93;;
3953;SDS011;1991;48.682;9.030;2023-04-02T11:46:02;0.60;;;0.60;;
3953;SDS011;1991;48.682;9.030;2023-04-02T11:48:40;0.82;;;0.70;;
3953;SDS011;1991;48.682;9.030;2023-04-02T11:53:48;0.43;;;0.43;;
3953;SDS011;1991;48.682;9.030;2023-04-02T11:59:10;0.70;;;0.50;;
3953;SDS011;1991;48.682;9.030;2023-04-02T12:10:32;0.80;;;0.57;;
3953;SDS011;1991;48.682;9.030;2023-04-02T12:14:06;1.63;;;0.70;;
3953;SDS011;1991;48.682;9.030;2023-04-02T12:16:06;1.63;;;0.60;;
3953;SDS011;1991;48.682;9.030;2023-04-02T12:18:46;1.55;;;0.52;;
3953;SDS011;1991;48.682;9.030;2023-04-02T12:21:18;0.75;;;0.40;;
3953;SDS011;1991;48.682;9.030;2023-04-02T12:23:50;1.85;;;0.47;;
3953;SDS011;1991;48.682;9.030;2023-04-02T12:31:55;0.52;;;0.30;;
3953;SDS011;1991;48.682;9.030;2023-04-02T12:34:23;0.80;;;0.15;;
3953;SDS011;1991;48.682;9.030;2023-04-02T12:36:58;1.63;;;1.40;;
3953;SDS011;1991;48.682;9.030;2023-04-02T12:39:29;0.20;;;0.20;;
3953;SDS011;1991;48.682;9.030;2023-04-02T12:41:55;0.13;;;0.13;;
3953;SDS011;1991;48.682;9.030;2023-04-02T12:44:22;0.40;;;0.40;;
3953;SDS011;1991;48.682;9.030;2023-04-02T12:46:51;0.50;;;0.30;;
3953;SDS011;1991;48.682;9.030;2023-04-02T12:52:01;0.20;;;0.20;;
3953;SDS011;1991;48.682;9.030;2023-04-02T12:59:51;0.65;;;0.22;;
3953;SDS011;1991;48.682;9.030;2023-04-02T13:02:19;1.00;;;0.30;;
3953;SDS011;1991;48.682;9.030;2023-04-02T13:04:49;0.52;;;0.22;;
3953;SDS011;1991;48.682;9.030;2023-04-02T13:07:20;1.50;;;0.50;;
3953;SDS011;1991;48.682;9.030;2023-04-02T13:09:49;0.13;;;0.03;;
3953;SDS011;1991;48.682;9.030;2023-04-02T13:15:05;1.48;;;0.20;;
3953;SDS011;1991;48.682;9.030;2023-04-02T13:20:53;1.05;;;0.30;;
3953;SDS011;1991;48.682;9.030;2023-04-02T13:23:47;0.30;;;0.30;;
3953;SDS011;1991;48.682;9.030;2023-04-02T13:26:14;0.52;;;0.30;;
3953;SDS011;1991;48.682;9.030;2023-04-02T13:31:29;1.27;;;0.40;;
3953;SDS011;1991;48.682;9.030;2023-04-02T13:33:57;0.45;;;0.38;;
3953;SDS011;1991;48.682;9.030;2023-04-02T13:36:23;0.93;;;0.70;;
3953;SDS011;1991;48.682;9.030;2023-04-02T13:38:49;0.93;;;0.52;;
3953;SDS011;1991;48.682;9.030;2023-04-02T13:41:19;7.43;;;4.60;;
3953;SDS011;1991;48.682;9.030;2023-04-02T13:43:54;5.68;;;4.05;;
3953;SDS011;1991;48.682;9.030;2023-04-02T13:46:25;1.27;;;1.10;;
3953;SDS011;1991;48.682;9.030;2023-04-02T13:48:54;0.43;;;0.43;;
3953;SDS011;1991;48.682;9.030;2023-04-02T13:51:21;1.15;;;0.80;;
3953;SDS011;1991;48.682;9.030;2023-04-02T13:53:50;0.60;;;0.60;;
3953;SDS011;1991;48.682;9.030;2023-04-02T13:56:20;3.08;;;0.63;;
3953;SDS011;1991;48.682;9.030;2023-04-02T13:58:48;4.90;;;4.40;;
3953;SDS011;1991;48.682;9.030;2023-04-02T14:01:15;11.40;;;10.00;;
3953;SDS011;1991;48.682;9.030;2023-04-02T14:03:42;1.75;;;0.70;;
3953;SDS011;1991;48.682;9.030;2023-04-02T14:09:19;1.73;;;0.63;;
3953;SDS011;1991;48.682;9.030;2023-04-02T14:18:09;1.50;;;1.27;;
3953;SDS011;1991;48.682;9.030;2023-04-02T14:23:07;3.60;;;1.40;;
3953;SDS011;1991;48.682;9.030;2023-04-02T14:25:39;1.33;;;1.13;;
3953;SDS011;1991;48.682;9.030;2023-04-02T14:28:42;2.15;;;1.73;;
3953;SDS011;1991;48.682;9.030;2023-04-02T14:31:32;2.85;;;1.48;;
3953;SDS011;1991;48.682;9.030;2023-04-02T14:36:56;3.47;;;2.83;;
3953;SDS011;1991;48.682;9.030;2023-04-02T14:44:50;1.37;;;1.27;;
3953;SDS011;1991;48.682;9.030;2023-04-02T14:47:27;4.07;;;2.57;;
3953;SDS011;1991;48.682;9.030;2023-04-02T14:50:15;1.73;;;1.63;;
3953;SDS011;1991;48.682;9.030;2023-04-02T14:52:46;3.90;;;3.50;;
3953;SDS011;1991;48.682;9.030;2023-04-02T14:55:34;1.60;;;1.20;;
3953;SDS011;1991;48.682;9.030;2023-04-02T14:58:09;3.83;;;1.90;;
3953;SDS011;1991;48.682;9.030;2023-04-02T15:00:50;1.00;;;0.93;;
3953;SDS011;1991;48.682;9.030;2023-04-02T15:03:24;2.00;;;1.40;;
3953;SDS011;1991;48.682;9.030;2023-04-02T15:05:59;3.03;;;1.50;;
3953;SDS011;1991;48.682;9.030;2023-04-02T15:08:37;1.43;;;1.30;;
3953;SDS011;1991;48.682;9.030;2023-04-02T15:11:11;3.33;;;2.80;;
3953;SDS011;1991;48.682;9.030;2023-04-02T15:13:44;3.97;;;2.40;;
3953;SDS011;1991;48.682;9.030;2023-04-02T15:16:17;2.17;;;1.70;;
3953;SDS011;1991;48.682;9.030;2023-04-02T15:18:45;2.33;;;2.10;;
3953;SDS011;1991;48.682;9.030;2023-04-02T15:21:23;1.80;;;1.50;;
3953;SDS011;1991;48.682;9.030;2023-04-02T15:27:00;2.00;;;1.80;;
3953;SDS011;1991;48.682;9.030;2023-04-02T15:29:41;2.03;;;1.90;;
3953;SDS011;1991;48.682;9.030;2023-04-02T15:43:30;1.67;;;1.37;;
3953;SDS011;1991;48.682;9.030;2023-04-02T15:46:21;2.63;;;2.43;;
3953;SDS011;1991;48.682;9.030;2023-04-02T15:54:11;1.70;;;1.60;;
3953;SDS011;1991;48.682;9.030;2023-04-02T15:57:07;2.00;;;1.90;;
3953;SDS011;1991;48.682;9.030;2023-04-02T15:59:40;2.60;;;1.50;;
3953;SDS011;1991;48.682;9.030;2023-04-02T16:05:41;1.67;;;1.57;;
3953;SDS011;1991;48.682;9.030;2023-04-02T16:08:32;1.33;;;1.23;;
3953;SDS011;1991;48.682;9.030;2023-04-02T16:11:11;1.47;;;1.37;;
3953;SDS011;1991;48.682;9.030;2023-04-02T16:13:39;1.50;;;1.40;;
3953;SDS011;1991;48.682;9.030;2023-04-02T16:21:39;2.60;;;1.93;;
3953;SDS011;1991;48.682;9.030;2023-04-02T16:24:13;3.50;;;2.40;;
3953;SDS011;1991;48.682;9.030;2023-04-02T16:26:41;2.00;;;1.80;;
3953;SDS011;1991;48.682;9.030;2023-04-02T16:35:25;2.80;;;1.70;;
3953;SDS011;1991;48.682;9.030;2023-04-02T16:38:14;1.30;;;1.10;;
3953;SDS011;1991;48.682;9.030;2023-04-02T16:43:33;1.60;;;1.50;;
3953;SDS011;1991;48.682;9.030;2023-04-02T16:54:02;2.13;;;1.60;;
3953;SDS011;1991;48.682;9.030;2023-04-02T17:02:17;1.80;;;1.70;;
3953;SDS011;1991;48.682;9.030;2023-04-02T17:04:57;1.77;;;1.63;;
3953;SDS011;1991;48.682;9.030;2023-04-02T17:08:02;2.37;;;2.10;;
3953;SDS011;1991;48.682;9.030;2023-04-02T17:18:42;2.23;;;2.03;;
3953;SDS011;1991;48.682;9.030;2023-04-02T17:21:11;3.10;;;2.80;;
3953;SDS011;1991;48.682;9.030;2023-04-02T17:24:05;2.60;;;2.40;;
3953;SDS011;1991;48.682;9.030;2023-04-02T17:26:44;2.10;;;2.00;;
3953;SDS011;1991;48.682;9.030;2023-04-02T17:29:14;3.73;;;2.03;;
3953;SDS011;1991;48.682;9.030;2023-04-02T17:31:49;3.90;;;2.10;;
3953;SDS011;1991;48.682;9.030;2023-04-02T17:34:17;1.90;;;1.80;;
3953;SDS011;1991;48.682;9.030;2023-04-02T17:36:54;2.07;;;1.90;;
3953;SDS011;1991;48.682;9.030;2023-04-02T17:39:43;2.43;;;2.10;;
3953;SDS011;1991;48.682;9.030;2023-04-02T17:45:16;2.43;;;2.17;;
3953;SDS011;1991;48.682;9.030;2023-04-02T17:48:04;3.90;;;2.53;;
3953;SDS011;1991;48.682;9.030;2023-04-02T17:50:52;2.13;;;1.93;;
3953;SDS011;1991;48.682;9.030;2023-04-02T18:02:16;4.30;;;2.20;;
3953;SDS011;1991;48.682;9.030;2023-04-02T18:10:13;4.60;;;2.67;;
3953;SDS011;1991;48.682;9.030;2023-04-02T18:13:02;2.73;;;2.50;;
3953;SDS011;1991;48.682;9.030;2023-04-02T18:18:24;3.63;;;3.40;;
3953;SDS011;1991;48.682;9.030;2023-04-02T18:21:20;3.57;;;2.13;;
3953;SDS011;1991;48.682;9.030;2023-04-02T18:29:20;3.13;;;2.80;;
3953;SDS011;1991;48.682;9.030;2023-04-02T18:37:35;2.93;;;2.73;;
3953;SDS011;1991;48.682;9.030;2023-04-02T18:40:20;2.77;;;2.57;;
3953;SDS011;1991;48.682;9.030;2023-04-02T18:45:28;3.00;;;2.70;;
3953;SDS011;1991;48.682;9.030;2023-04-02T18:50:36;3.13;;;2.47;;
3953;SDS011;1991;48.682;9.030;2023-04-02T18:53:18;5.33;;;3.20;;
3953;SDS011;1991;48.682;9.030;2023-04-02T18:58:24;3.20;;;2.90;;
3953;SDS011;1991;48.682;9.030;2023-04-02T19:00:54;4.20;;;3.10;;
3953;SDS011;1991;48.682;9.030;2023-04-02T19:05:57;3.60;;;3.30;;
3953;SDS011;1991;48.682;9.030;2023-04-02T19:08:32;4.47;;;3.70;;
3953;SDS011;1991;48.682;9.030;2023-04-02T19:11:10;7.67;;;3.10;;
3953;SDS011;1991;48.682;9.030;2023-04-02T19:13:40;3.40;;;3.10;;
3953;SDS011;1991;48.682;9.030;2023-04-02T19:16:25;3.93;;;3.50;;
3953;SDS011;1991;48.682;9.030;2023-04-02T19:19:10;3.57;;;3.27;;
3953;SDS011;1991;48.682;9.030;2023-04-02T19:29:33;4.73;;;4.30;;
3953;SDS011;1991;48.682;9.030;2023-04-02T19:43:35;5.80;;;4.20;;
3953;SDS011;1991;48.682;9.030;2023-04-02T19:46:01;7.27;;;4.60;;
3953;SDS011;1991;48.682;9.030;2023-04-02T19:48:29;4.83;;;3.60;;
3953;SDS011;1991;48.682;9.030;2023-04-02T19:51:07;4.00;;;3.60;;
3953;SDS011;1991;48.682;9.030;2023-04-02T19:53:33;4.37;;;3.30;;
3953;SDS011;1991;48.682;9.030;2023-04-02T19:56:00;4.00;;;2.90;;
3953;SDS011;1991;48.682;9.030;2023-04-02T19:58:30;3.63;;;3.27;;
3953;SDS011;1991;48.682;9.030;2023-04-02T20:00:57;4.37;;;3.10;;
3953;SDS011;1991;48.682;9.030;2023-04-02T20:03:23;6.13;;;3.33;;
3953;SDS011;1991;48.682;9.030;2023-04-02T20:05:49;6.40;;;5.17;;
3953;SDS011;1991;48.682;9.030;2023-04-02T20:08:15;3.70;;;3.07;;
3953;SDS011;1991;48.682;9.030;2023-04-02T20:10:41;3.37;;;2.90;;
3953;SDS011;1991;48.682;9.030;2023-04-02T20:13:07;3.77;;;3.03;;
3953;SDS011;1991;48.682;9.030;2023-04-02T20:15:33;4.13;;;3.73;;
3953;SDS011;1991;48.682;9.030;2023-04-02T20:18:00;3.87;;;2.97;;
3953;SDS011;1991;48.682;9.030;2023-04-02T20:20:26;3.60;;;2.63;;
3953;SDS011;1991;48.682;9.030;2023-04-02T20:22:52;3.10;;;2.80;;
3953;SDS011;1991;48.682;9.030;2023-04-02T20:25:17;3.47;;;2.50;;
3953;SDS011;1991;48.682;9.030;2023-04-02T20:27:43;3.10;;;2.80;;
3953;SDS011;1991;48.682;9.030;2023-04-02T20:30:09;7.30;;;2.77;;
3953;SDS011;1991;48.682;9.030;2023-04-02T20:32:35;2.90;;;2.60;;
3953;SDS011;1991;48.682;9.030;2023-04-02T20:35:01;6.00;;;2.50;;
3953;SDS011;1991;48.682;9.030;2023-04-02T20:37:27;3.77;;;3.30;;
3953;SDS011;1991;48.682;9.030;2023-04-02T20:39:53;4.80;;;3.23;;
3953;SDS011;1991;48.682;9.030;2023-04-02T20:42:18;18.03;;;13.63;;
3953;SDS011;1991;48.682;9.030;2023-04-02T20:44:44;4.37;;;2.90;;
3953;SDS011;1991;48.682;9.030;2023-04-02T20:47:10;5.67;;;5.10;;
3953;SDS011;1991;48.682;9.030;2023-04-02T20:49:36;6.13;;;3.77;;
3953;SDS011;1991;48.682;9.030;2023-04-02T20:52:02;11.20;;;7.77;;
3953;SDS011;1991;48.682;9.030;2023-04-02T20:54:27;4.10;;;3.43;;
3953;SDS011;1991;48.682;9.030;2023-04-02T20:56:53;4.53;;;2.90;;
3953;SDS011;1991;48.682;9.030;2023-04-02T20:59:19;4.30;;;3.20;;
3953;SDS011;1991;48.682;9.030;2023-04-02T21:01:44;5.40;;;3.90;;
3953;SDS011;1991;48.682;9.030;2023-04-02T21:04:10;4.27;;;2.90;;
3953;SDS011;1991;48.682;9.030;2023-04-02T21:06:37;4.67;;;2.90;;
3953;SDS011;1991;48.682;9.030;2023-04-02T21:09:05;5.07;;;3.07;;
3953;SDS011;1991;48.682;9.030;2023-04-02T21:11:34;3.97;;;2.70;;
3953;SDS011;1991;48.682;9.030;2023-04-02T21:14:00;2.97;;;2.37;;
3953;SDS011;1991;48.682;9.030;2023-04-02T21:16:27;3.50;;;2.20;;